TAF and METAR

METAR for Naples Airport

LIRN 311350Z 27011KT 240V320 9999 SCT040 23/12 Q1013 TEMPO TS
Report created 31. mai 15:50
wind 11 knots from W (270°) Wind direction varies from WSW to NW visibility > 10km scattered clouds (~50% cover) at 4000 feet Temperature 23° with dewpoint at 12° (Humidity 49.97%) Pressure 1013 hPa

TAF for Naples Airport

TAF LIRN 311100Z 3112/0112 29010KT 9999 SCT030 TEMPO 3114/3118 SHRA BECMG 3117/3119 VRB05KT BECMG 0108/0110 26010KT
Report created 31. mai 13:00

between 31. mai 14:00 - 1. mai 14:00

wind 10 knots from WNW (290°) visibility > 10km scattered clouds (~50% cover) at 3000 feet

temporarily between 31. mai 16:00 - 31. mai 20:00

rain showers

becoming between 31. mai 19:00 - 31. mai 21:00

wind 5 knots from various directions

becoming between 1. mai 10:00 - 1. mai 12:00

wind 10 knots from W (260°)
Naples Airport in Italy at 72m

Latest 5 airports